Arvada, Colorado
Current Conditions -  °F | °C
As of 1:55 AM on Wednesday 26 Nov 2014 (Local Time) from KBJC Reporting Station
Light Snow Light Snow  
Wind Chill: 30°   Ceiling: 1100
Heat Index: 30°   Visibility: 2.5mi
Dew Point: 28°   Wind: 0mph
Humidity: 93%   Direction: NA
Pressure: 30.16"   Gusts: NA
Location:  39.8°N, 105.08°W
Report Text: KBJC 260855Z AUTO 00000KT 2 1/2SM -SN BKN011 OVC019 M01/M02 A3016 RMK AO2
Loading
Personal Weather Stations






























Interactive Weather Map New forecast layout! Learn more

10-Day Weather Forecast

Advertisements
Track Severe Weather on mobile